sensor_id;sensor_type;location;lat;lon;timestamp;pressure;altitude;pressure_sealevel;temperature;humidity
58072;BME280;60383;46.626;18.866;2023-08-06T00:01:38;99095.75;;;20.06;100.00
58072;BME280;60383;46.626;18.866;2023-08-06T00:04:03;99098.72;;;19.99;100.00
58072;BME280;60383;46.626;18.866;2023-08-06T00:06:29;99093.16;;;19.99;100.00
58072;BME280;60383;46.626;18.866;2023-08-06T00:08:54;99100.97;;;20.02;100.00
58072;BME280;60383;46.626;18.866;2023-08-06T00:11:20;99093.84;;;20.06;100.00
58072;BME280;60383;46.626;18.866;2023-08-06T00:13:45;99087.00;;;20.14;100.00
58072;BME280;60383;46.626;18.866;2023-08-06T00:16:12;99094.06;;;20.05;100.00
58072;BME280;60383;46.626;18.866;2023-08-06T00:18:38;99085.72;;;20.22;100.00
58072;BME280;60383;46.626;18.866;2023-08-06T00:21:04;99087.25;;;20.13;100.00
58072;BME280;60383;46.626;18.866;2023-08-06T00:23:29;99082.88;;;20.17;100.00
58072;BME280;60383;46.626;18.866;2023-08-06T00:25:55;99085.38;;;20.18;100.00
58072;BME280;60383;46.626;18.866;2023-08-06T00:28:20;99072.41;;;20.24;100.00
58072;BME280;60383;46.626;18.866;2023-08-06T00:30:46;99065.16;;;20.23;100.00
58072;BME280;60383;46.626;18.866;2023-08-06T00:33:12;99064.75;;;20.31;100.00
58072;BME280;60383;46.626;18.866;2023-08-06T00:35:37;99061.38;;;20.29;100.00
58072;BME280;60383;46.626;18.866;2023-08-06T00:38:02;99066.38;;;20.27;100.00
58072;BME280;60383;46.626;18.866;2023-08-06T00:40:28;99069.84;;;20.00;100.00
58072;BME280;60383;46.626;18.866;2023-08-06T00:42:55;99071.06;;;20.09;100.00
58072;BME280;60383;46.626;18.866;2023-08-06T00:45:21;99068.81;;;19.89;100.00
58072;BME280;60383;46.626;18.866;2023-08-06T00:47:47;99080.41;;;19.86;100.00
58072;BME280;60383;46.626;18.866;2023-08-06T00:50:13;99075.13;;;19.85;100.00
58072;BME280;60383;46.626;18.866;2023-08-06T00:52:39;99073.19;;;20.02;100.00
58072;BME280;60383;46.626;18.866;2023-08-06T00:55:05;99064.34;;;20.05;100.00
58072;BME280;60383;46.626;18.866;2023-08-06T00:57:31;99065.53;;;19.92;100.00
58072;BME280;60383;46.626;18.866;2023-08-06T00:59:57;99065.28;;;19.94;100.00
58072;BME280;60383;46.626;18.866;2023-08-06T01:02:23;99061.50;;;20.00;100.00
58072;BME280;60383;46.626;18.866;2023-08-06T01:04:48;99061.25;;;19.85;100.00
58072;BME280;60383;46.626;18.866;2023-08-06T01:07:38;99064.22;;;19.66;100.00
58072;BME280;60383;46.626;18.866;2023-08-06T01:12:47;99055.78;;;19.61;100.00
58072;BME280;60383;46.626;18.866;2023-08-06T01:15:19;99050.91;;;19.51;100.00
58072;BME280;60383;46.626;18.866;2023-08-06T01:17:47;99054.84;;;19.38;100.00
58072;BME280;60383;46.626;18.866;2023-08-06T01:20:13;99044.00;;;19.54;100.00
58072;BME280;60383;46.626;18.866;2023-08-06T01:22:38;99038.09;;;19.50;100.00
58072;BME280;60383;46.626;18.866;2023-08-06T01:25:04;99023.88;;;19.63;100.00
58072;BME280;60383;46.626;18.866;2023-08-06T01:27:49;99035.13;;;19.69;100.00
58072;BME280;60383;46.626;18.866;2023-08-06T01:30:24;99026.94;;;19.62;100.00
58072;BME280;60383;46.626;18.866;2023-08-06T01:32:53;99028.13;;;19.66;100.00
58072;BME280;60383;46.626;18.866;2023-08-06T01:35:25;99033.34;;;19.62;100.00
58072;BME280;60383;46.626;18.866;2023-08-06T01:37:52;99027.53;;;19.64;100.00
58072;BME280;60383;46.626;18.866;2023-08-06T01:40:18;99015.91;;;19.67;100.00
58072;BME280;60383;46.626;18.866;2023-08-06T01:42:43;99015.56;;;19.63;100.00
58072;BME280;60383;46.626;18.866;2023-08-06T01:45:09;99010.00;;;19.63;100.00
58072;BME280;60383;46.626;18.866;2023-08-06T01:47:35;99012.47;;;19.77;100.00
58072;BME280;60383;46.626;18.866;2023-08-06T01:50:01;99012.22;;;19.78;100.00
58072;BME280;60383;46.626;18.866;2023-08-06T01:52:27;99015.09;;;19.84;100.00
58072;BME280;60383;46.626;18.866;2023-08-06T01:54:53;99008.09;;;19.64;100.00
58072;BME280;60383;46.626;18.866;2023-08-06T01:57:19;99001.59;;;19.75;100.00
58072;BME280;60383;46.626;18.866;2023-08-06T01:59:44;99004.97;;;19.77;100.00
58072;BME280;60383;46.626;18.866;2023-08-06T02:02:09;99003.81;;;19.73;100.00
58072;BME280;60383;46.626;18.866;2023-08-06T02:04:35;98992.25;;;19.64;100.00
58072;BME280;60383;46.626;18.866;2023-08-06T02:07:00;98994.81;;;19.66;100.00
58072;BME280;60383;46.626;18.866;2023-08-06T02:09:26;98996.03;;;19.41;100.00
58072;BME280;60383;46.626;18.866;2023-08-06T02:11:51;99001.41;;;19.31;100.00
58072;BME280;60383;46.626;18.866;2023-08-06T02:14:17;99003.13;;;19.49;100.00
58072;BME280;60383;46.626;18.866;2023-08-06T02:16:42;99005.13;;;19.54;100.00
58072;BME280;60383;46.626;18.866;2023-08-06T02:19:08;99003.28;;;19.42;100.00
58072;BME280;60383;46.626;18.866;2023-08-06T02:21:33;99013.09;;;19.33;100.00
58072;BME280;60383;46.626;18.866;2023-08-06T02:23:59;99001.25;;;19.38;100.00
58072;BME280;60383;46.626;18.866;2023-08-06T02:26:24;99007.66;;;19.38;100.00
58072;BME280;60383;46.626;18.866;2023-08-06T02:28:50;99007.47;;;19.45;100.00
58072;BME280;60383;46.626;18.866;2023-08-06T02:31:15;99000.75;;;19.41;100.00
58072;BME280;60383;46.626;18.866;2023-08-06T02:33:41;99007.97;;;19.25;100.00
58072;BME280;60383;46.626;18.866;2023-08-06T02:36:06;99006.34;;;19.12;100.00
58072;BME280;60383;46.626;18.866;2023-08-06T02:38:32;99006.63;;;18.87;100.00
58072;BME280;60383;46.626;18.866;2023-08-06T02:40:58;99007.25;;;18.89;100.00
58072;BME280;60383;46.626;18.866;2023-08-06T02:43:24;99006.03;;;18.84;100.00
58072;BME280;60383;46.626;18.866;2023-08-06T02:45:49;99012.28;;;18.63;100.00
58072;BME280;60383;46.626;18.866;2023-08-06T02:48:15;98997.06;;;18.65;100.00
58072;BME280;60383;46.626;18.866;2023-08-06T02:50:41;98985.13;;;18.65;100.00
58072;BME280;60383;46.626;18.866;2023-08-06T02:53:07;98981.72;;;18.75;100.00
58072;BME280;60383;46.626;18.866;2023-08-06T02:55:34;98982.75;;;18.86;100.00
58072;BME280;60383;46.626;18.866;2023-08-06T02:58:02;98985.00;;;18.72;100.00
58072;BME280;60383;46.626;18.866;2023-08-06T03:00:28;98977.66;;;18.65;100.00
58072;BME280;60383;46.626;18.866;2023-08-06T03:02:53;98983.28;;;18.82;100.00
58072;BME280;60383;46.626;18.866;2023-08-06T03:05:19;98985.69;;;18.79;100.00
58072;BME280;60383;46.626;18.866;2023-08-06T03:07:45;98987.47;;;18.85;100.00
58072;BME280;60383;46.626;18.866;2023-08-06T03:10:10;98984.34;;;18.81;100.00
58072;BME280;60383;46.626;18.866;2023-08-06T03:12:36;98988.94;;;18.76;100.00
58072;BME280;60383;46.626;18.866;2023-08-06T03:15:01;98995.31;;;18.47;100.00
58072;BME280;60383;46.626;18.866;2023-08-06T03:17:27;98993.63;;;18.46;100.00
58072;BME280;60383;46.626;18.866;2023-08-06T03:19:52;98988.91;;;18.47;100.00
58072;BME280;60383;46.626;18.866;2023-08-06T03:22:18;98984.81;;;18.49;100.00
58072;BME280;60383;46.626;18.866;2023-08-06T03:24:43;98993.38;;;18.48;100.00
58072;BME280;60383;46.626;18.866;2023-08-06T03:27:09;98984.81;;;18.49;100.00
58072;BME280;60383;46.626;18.866;2023-08-06T03:29:34;98972.25;;;18.59;100.00
58072;BME280;60383;46.626;18.866;2023-08-06T03:32:00;98977.28;;;18.74;100.00
58072;BME280;60383;46.626;18.866;2023-08-06T03:34:25;98987.38;;;18.80;100.00
58072;BME280;60383;46.626;18.866;2023-08-06T03:36:51;98992.50;;;18.59;100.00
58072;BME280;60383;46.626;18.866;2023-08-06T03:39:16;98988.06;;;18.46;100.00
58072;BME280;60383;46.626;18.866;2023-08-06T03:41:42;98995.75;;;18.56;100.00
58072;BME280;60383;46.626;18.866;2023-08-06T03:44:07;98999.75;;;18.48;100.00
58072;BME280;60383;46.626;18.866;2023-08-06T03:46:33;98991.59;;;18.30;100.00
58072;BME280;60383;46.626;18.866;2023-08-06T03:49:02;98995.47;;;18.29;100.00
58072;BME280;60383;46.626;18.866;2023-08-06T03:51:28;99000.59;;;18.37;100.00
58072;BME280;60383;46.626;18.866;2023-08-06T03:53:53;99010.22;;;18.58;100.00
58072;BME280;60383;46.626;18.866;2023-08-06T03:56:19;99005.16;;;18.55;100.00
58072;BME280;60383;46.626;18.866;2023-08-06T03:58:44;98996.22;;;18.65;100.00
58072;BME280;60383;46.626;18.866;2023-08-06T04:01:10;98996.00;;;18.55;100.00
58072;BME280;60383;46.626;18.866;2023-08-06T04:03:35;98997.69;;;18.56;100.00
58072;BME280;60383;46.626;18.866;2023-08-06T04:06:02;98995.00;;;18.73;100.00
58072;BME280;60383;46.626;18.866;2023-08-06T04:08:28;99002.81;;;18.76;100.00
58072;BME280;60383;46.626;18.866;2023-08-06T04:10:53;99003.53;;;18.71;100.00
58072;BME280;60383;46.626;18.866;2023-08-06T04:13:19;98997.06;;;18.65;100.00
58072;BME280;60383;46.626;18.866;2023-08-06T04:15:45;98994.41;;;18.71;100.00
58072;BME280;60383;46.626;18.866;2023-08-06T04:18:11;98994.16;;;18.72;100.00
58072;BME280;60383;46.626;18.866;2023-08-06T04:20:46;98985.25;;;18.70;100.00
58072;BME280;60383;46.626;18.866;2023-08-06T04:23:13;98975.34;;;18.74;100.00
58072;BME280;60383;46.626;18.866;2023-08-06T04:25:38;98975.59;;;18.73;100.00
58072;BME280;60383;46.626;18.866;2023-08-06T04:28:04;98975.34;;;18.74;100.00
58072;BME280;60383;46.626;18.866;2023-08-06T04:30:29;98964.94;;;18.81;100.00
58072;BME280;60383;46.626;18.866;2023-08-06T04:32:57;98963.84;;;18.82;100.00
58072;BME280;60383;46.626;18.866;2023-08-06T04:35:23;98962.44;;;18.80;100.00
58072;BME280;60383;46.626;18.866;2023-08-06T04:37:48;98962.91;;;18.77;100.00
58072;BME280;60383;46.626;18.866;2023-08-06T04:40:14;98963.25;;;18.80;100.00
58072;BME280;60383;46.626;18.866;2023-08-06T04:42:39;98952.25;;;18.86;100.00
58072;BME280;60383;46.626;18.866;2023-08-06T04:45:05;98952.38;;;18.91;100.00
58072;BME280;60383;46.626;18.866;2023-08-06T04:47:31;98954.91;;;18.92;100.00
58072;BME280;60383;46.626;18.866;2023-08-06T04:49:56;98961.91;;;18.83;100.00
58072;BME280;60383;46.626;18.866;2023-08-06T04:52:22;98961.56;;;18.79;100.00
58072;BME280;60383;46.626;18.866;2023-08-06T04:54:47;98962.81;;;18.72;100.00
58072;BME280;60383;46.626;18.866;2023-08-06T04:57:13;98959.75;;;18.85;100.00
58072;BME280;60383;46.626;18.866;2023-08-06T04:59:39;98962.66;;;18.78;100.00
58072;BME280;60383;46.626;18.866;2023-08-06T05:02:04;98967.47;;;18.83;100.00
58072;BME280;60383;46.626;18.866;2023-08-06T05:04:30;98961.22;;;18.76;100.00
58072;BME280;60383;46.626;18.866;2023-08-06T05:06:55;98953.47;;;18.90;100.00
58072;BME280;60383;46.626;18.866;2023-08-06T05:09:21;98950.31;;;18.98;99.69
58072;BME280;60383;46.626;18.866;2023-08-06T05:11:47;98943.09;;;18.85;99.98
58072;BME280;60383;46.626;18.866;2023-08-06T05:14:12;98944.16;;;18.55;100.00
58072;BME280;60383;46.626;18.866;2023-08-06T05:16:38;98949.00;;;18.48;100.00
58072;BME280;60383;46.626;18.866;2023-08-06T05:19:04;98953.50;;;18.78;99.74
58072;BME280;60383;46.626;18.866;2023-08-06T05:21:29;98951.63;;;18.66;100.00
58072;BME280;60383;46.626;18.866;2023-08-06T05:23:55;98954.16;;;18.68;100.00
58072;BME280;60383;46.626;18.866;2023-08-06T05:26:20;98964.25;;;18.74;99.84
58072;BME280;60383;46.626;18.866;2023-08-06T05:28:46;98957.31;;;18.60;100.00
58072;BME280;60383;46.626;18.866;2023-08-06T05:31:12;98961.03;;;18.65;100.00
58072;BME280;60383;46.626;18.866;2023-08-06T05:33:37;98967.78;;;18.58;100.00
58072;BME280;60383;46.626;18.866;2023-08-06T05:36:03;98971.16;;;18.60;100.00
58072;BME280;60383;46.626;18.866;2023-08-06T05:38:29;98973.59;;;18.56;100.00
58072;BME280;60383;46.626;18.866;2023-08-06T05:40:55;98961.38;;;18.69;100.00
58072;BME280;60383;46.626;18.866;2023-08-06T05:43:21;98958.22;;;18.77;100.00
58072;BME280;60383;46.626;18.866;2023-08-06T05:45:49;98954.75;;;18.99;99.22
58072;BME280;60383;46.626;18.866;2023-08-06T05:48:14;98964.19;;;18.98;99.32
58072;BME280;60383;46.626;18.866;2023-08-06T05:50:41;98965.75;;;18.94;99.58
58072;BME280;60383;46.626;18.866;2023-08-06T05:53:07;98966.44;;;19.01;100.00
58072;BME280;60383;46.626;18.866;2023-08-06T05:55:33;98959.75;;;19.14;99.68
58072;BME280;60383;46.626;18.866;2023-08-06T05:57:58;98952.53;;;19.13;97.75
58072;BME280;60383;46.626;18.866;2023-08-06T06:00:24;98946.91;;;19.08;96.41
58072;BME280;60383;46.626;18.866;2023-08-06T06:02:49;98950.09;;;19.17;95.90
58072;BME280;60383;46.626;18.866;2023-08-06T06:05:15;98966.25;;;19.37;95.18
58072;BME280;60383;46.626;18.866;2023-08-06T06:07:40;98971.47;;;19.33;94.56
58072;BME280;60383;46.626;18.866;2023-08-06T06:10:06;98977.53;;;19.30;93.79
58072;BME280;60383;46.626;18.866;2023-08-06T06:12:32;98982.03;;;19.19;92.70
58072;BME280;60383;46.626;18.866;2023-08-06T06:14:58;98983.47;;;19.22;92.78
58072;BME280;60383;46.626;18.866;2023-08-06T06:17:23;98976.84;;;19.23;92.00
58072;BME280;60383;46.626;18.866;2023-08-06T06:19:49;98974.28;;;19.04;93.49
58072;BME280;60383;46.626;18.866;2023-08-06T06:22:14;98986.75;;;19.19;94.04
58072;BME280;60383;46.626;18.866;2023-08-06T06:24:40;98983.69;;;19.03;94.18
58072;BME280;60383;46.626;18.866;2023-08-06T06:27:05;98988.50;;;19.08;93.49
58072;BME280;60383;46.626;18.866;2023-08-06T06:29:31;98996.72;;;19.03;94.94
58072;BME280;60383;46.626;18.866;2023-08-06T06:31:56;98997.63;;;18.91;93.76
58072;BME280;60383;46.626;18.866;2023-08-06T06:34:22;99004.72;;;18.87;96.01
58072;BME280;60383;46.626;18.866;2023-08-06T06:36:47;99003.03;;;18.98;95.02
58072;BME280;60383;46.626;18.866;2023-08-06T06:39:13;99010.13;;;18.94;94.43
58072;BME280;60383;46.626;18.866;2023-08-06T06:41:39;99014.88;;;18.93;94.24
58072;BME280;60383;46.626;18.866;2023-08-06T06:44:05;99023.75;;;18.95;93.02
58072;BME280;60383;46.626;18.866;2023-08-06T06:46:31;99025.16;;;19.10;91.60
58072;BME280;60383;46.626;18.866;2023-08-06T06:48:56;99019.16;;;19.01;91.34
58072;BME280;60383;46.626;18.866;2023-08-06T06:51:22;99026.88;;;18.99;92.65
58072;BME280;60383;46.626;18.866;2023-08-06T06:53:47;99025.69;;;18.95;90.94
58072;BME280;60383;46.626;18.866;2023-08-06T06:56:13;99017.03;;;18.91;91.59
58072;BME280;60383;46.626;18.866;2023-08-06T06:58:38;99022.19;;;18.99;89.78
58072;BME280;60383;46.626;18.866;2023-08-06T07:01:06;99015.25;;;19.14;88.80
58072;BME280;60383;46.626;18.866;2023-08-06T07:03:31;99019.06;;;18.96;90.13
58072;BME280;60383;46.626;18.866;2023-08-06T07:05:58;99024.66;;;19.13;88.65
58072;BME280;60383;46.626;18.866;2023-08-06T07:08:26;99026.78;;;18.94;89.79
58072;BME280;60383;46.626;18.866;2023-08-06T07:11:00;99026.44;;;19.19;90.04
58072;BME280;60383;46.626;18.866;2023-08-06T07:13:26;99019.16;;;19.30;85.95
58072;BME280;60383;46.626;18.866;2023-08-06T07:15:52;99022.63;;;19.08;86.72
58072;BME280;60383;46.626;18.866;2023-08-06T07:18:17;99030.25;;;19.01;88.23
58072;BME280;60383;46.626;18.866;2023-08-06T07:20:48;99038.19;;;19.09;87.34
58072;BME280;60383;46.626;18.866;2023-08-06T07:23:14;99034.22;;;19.05;87.48
58072;BME280;60383;46.626;18.866;2023-08-06T07:25:39;99036.06;;;18.99;86.72
58072;BME280;60383;46.626;18.866;2023-08-06T07:28:05;99043.31;;;18.89;87.91
58072;BME280;60383;46.626;18.866;2023-08-06T07:30:30;99048.13;;;18.81;88.54
58072;BME280;60383;46.626;18.866;2023-08-06T07:32:56;99052.81;;;18.81;88.62
58072;BME280;60383;46.626;18.866;2023-08-06T07:35:21;99044.78;;;18.91;88.41
58072;BME280;60383;46.626;18.866;2023-08-06T07:37:47;99062.97;;;18.87;86.99
58072;BME280;60383;46.626;18.866;2023-08-06T07:40:12;99054.78;;;18.92;87.58
58072;BME280;60383;46.626;18.866;2023-08-06T07:42:38;99045.94;;;18.95;87.25
58072;BME280;60383;46.626;18.866;2023-08-06T07:45:04;99056.72;;;18.80;87.95
58072;BME280;60383;46.626;18.866;2023-08-06T07:47:29;99052.97;;;18.98;86.87
58072;BME280;60383;46.626;18.866;2023-08-06T07:49:55;99063.09;;;18.80;87.45
58072;BME280;60383;46.626;18.866;2023-08-06T07:52:20;99062.84;;;18.82;87.62
58072;BME280;60383;46.626;18.866;2023-08-06T07:54:46;99060.94;;;18.82;87.13
58072;BME280;60383;46.626;18.866;2023-08-06T07:57:11;99063.44;;;18.96;85.40
58072;BME280;60383;46.626;18.866;2023-08-06T07:59:37;99062.84;;;18.94;85.26
58072;BME280;60383;46.626;18.866;2023-08-06T08:02:02;99071.50;;;18.97;84.86
58072;BME280;60383;46.626;18.866;2023-08-06T08:04:29;99071.16;;;18.94;85.56
58072;BME280;60383;46.626;18.866;2023-08-06T08:06:55;99073.00;;;18.76;86.48
58072;BME280;60383;46.626;18.866;2023-08-06T08:09:20;99071.56;;;18.62;86.22
58072;BME280;60383;46.626;18.866;2023-08-06T08:11:46;99074.69;;;18.77;85.46
58072;BME280;60383;46.626;18.866;2023-08-06T08:14:12;99066.38;;;18.65;86.55
58072;BME280;60383;46.626;18.866;2023-08-06T08:16:37;99068.63;;;18.80;85.91
58072;BME280;60383;46.626;18.866;2023-08-06T08:19:03;99055.84;;;19.03;85.80
58072;BME280;60383;46.626;18.866;2023-08-06T08:21:29;99060.91;;;19.23;84.24
58072;BME280;60383;46.626;18.866;2023-08-06T08:23:54;99062.97;;;19.28;82.90
58072;BME280;60383;46.626;18.866;2023-08-06T08:26:20;99065.44;;;19.41;82.86
58072;BME280;60383;46.626;18.866;2023-08-06T08:28:45;99062.97;;;19.28;84.02
58072;BME280;60383;46.626;18.866;2023-08-06T08:31:11;99058.41;;;19.22;84.01
58072;BME280;60383;46.626;18.866;2023-08-06T08:33:40;99064.66;;;19.29;84.20
58072;BME280;60383;46.626;18.866;2023-08-06T08:36:05;99064.34;;;19.13;84.06
58072;BME280;60383;46.626;18.866;2023-08-06T08:38:31;99068.91;;;19.20;82.96
58072;BME280;60383;46.626;18.866;2023-08-06T08:40:56;99074.91;;;19.28;83.39
58072;BME280;60383;46.626;18.866;2023-08-06T08:43:22;99071.63;;;19.31;82.05
58072;BME280;60383;46.626;18.866;2023-08-06T08:45:52;99067.94;;;19.43;80.98
58072;BME280;60383;46.626;18.866;2023-08-06T08:48:20;99063.34;;;19.48;79.88
58072;BME280;60383;46.626;18.866;2023-08-06T08:50:49;99065.59;;;19.35;81.42
58072;BME280;60383;46.626;18.866;2023-08-06T08:53:16;99067.59;;;19.39;82.38
58072;BME280;60383;46.626;18.866;2023-08-06T08:55:43;99059.09;;;19.29;81.79
58072;BME280;60383;46.626;18.866;2023-08-06T08:58:10;99055.97;;;19.54;80.80
58072;BME280;60383;46.626;18.866;2023-08-06T09:00:36;99059.91;;;19.58;80.63
58072;BME280;60383;46.626;18.866;2023-08-06T09:03:04;99060.59;;;19.66;83.29
58072;BME280;60383;46.626;18.866;2023-08-06T09:05:31;99066.91;;;19.61;82.06
58072;BME280;60383;46.626;18.866;2023-08-06T09:08:02;99068.25;;;19.75;78.12
58072;BME280;60383;46.626;18.866;2023-08-06T09:10:28;99067.56;;;19.68;79.77
58072;BME280;60383;46.626;18.866;2023-08-06T09:12:55;99070.13;;;19.70;79.51
58072;BME280;60383;46.626;18.866;2023-08-06T09:15:25;99073.31;;;19.78;79.45
58072;BME280;60383;46.626;18.866;2023-08-06T09:17:54;99072.69;;;19.88;77.82
58072;BME280;60383;46.626;18.866;2023-08-06T09:20:20;99069.81;;;19.83;79.10
58072;BME280;60383;46.626;18.866;2023-08-06T09:22:46;99073.94;;;19.98;77.18
58072;BME280;60383;46.626;18.866;2023-08-06T09:25:24;99080.44;;;20.03;76.01
58072;BME280;60383;46.626;18.866;2023-08-06T09:27:51;99082.53;;;19.96;76.09
58072;BME280;60383;46.626;18.866;2023-08-06T09:30:30;99077.19;;;19.77;76.36
58072;BME280;60383;46.626;18.866;2023-08-06T09:32:59;99087.56;;;19.82;76.25
58072;BME280;60383;46.626;18.866;2023-08-06T09:35:28;99092.50;;;19.80;77.77
58072;BME280;60383;46.626;18.866;2023-08-06T09:37:54;99089.38;;;19.76;76.71
58072;BME280;60383;46.626;18.866;2023-08-06T09:42:51;99095.03;;;19.82;75.78
58072;BME280;60383;46.626;18.866;2023-08-06T09:45:17;99088.63;;;19.64;75.24
58072;BME280;60383;46.626;18.866;2023-08-06T09:47:43;99101.72;;;19.52;76.62
58072;BME280;60383;46.626;18.866;2023-08-06T09:50:16;99103.59;;;19.63;75.77
58072;BME280;60383;46.626;18.866;2023-08-06T09:52:43;99094.34;;;19.74;74.23
58072;BME280;60383;46.626;18.866;2023-08-06T09:55:10;99095.19;;;19.87;74.75
58072;BME280;60383;46.626;18.866;2023-08-06T09:57:37;99099.53;;;20.00;74.99
58072;BME280;60383;46.626;18.866;2023-08-06T10:00:03;99100.22;;;19.90;74.96
58072;BME280;60383;46.626;18.866;2023-08-06T10:02:30;99099.72;;;20.10;74.88
58072;BME280;60383;46.626;18.866;2023-08-06T10:04:57;99090.09;;;20.18;74.85
58072;BME280;60383;46.626;18.866;2023-08-06T10:07:23;99092.22;;;20.27;74.92
58072;BME280;60383;46.626;18.866;2023-08-06T10:09:49;99095.91;;;20.33;73.23
58072;BME280;60383;46.626;18.866;2023-08-06T10:12:15;99084.59;;;20.40;72.02
58072;BME280;60383;46.626;18.866;2023-08-06T10:14:45;99097.44;;;20.80;70.64
58072;BME280;60383;46.626;18.866;2023-08-06T10:17:11;99091.84;;;21.19;70.21
58072;BME280;60383;46.626;18.866;2023-08-06T10:19:37;99099.09;;;21.20;70.76
58072;BME280;60383;46.626;18.866;2023-08-06T10:22:13;99097.41;;;21.19;68.94
58072;BME280;60383;46.626;18.866;2023-08-06T10:24:49;99100.13;;;21.14;70.81
58072;BME280;60383;46.626;18.866;2023-08-06T10:27:40;99105.09;;;21.34;68.89
58072;BME280;60383;46.626;18.866;2023-08-06T10:30:27;99098.41;;;21.58;66.32
58072;BME280;60383;46.626;18.866;2023-08-06T10:33:03;99099.19;;;22.13;64.92
58072;BME280;60383;46.626;18.866;2023-08-06T10:37:59;99097.38;;;22.67;64.24
58072;BME280;60383;46.626;18.866;2023-08-06T10:40:25;99096.50;;;22.66;63.58
58072;BME280;60383;46.626;18.866;2023-08-06T10:42:51;99112.03;;;22.52;62.69
58072;BME280;60383;46.626;18.866;2023-08-06T10:45:18;99106.53;;;22.62;62.01
58072;BME280;60383;46.626;18.866;2023-08-06T10:47:45;99110.63;;;22.49;60.07
58072;BME280;60383;46.626;18.866;2023-08-06T10:50:12;99115.09;;;22.50;58.24
58072;BME280;60383;46.626;18.866;2023-08-06T10:52:38;99115.06;;;22.88;58.03
58072;BME280;60383;46.626;18.866;2023-08-06T10:55:04;99109.53;;;22.98;57.23
58072;BME280;60383;46.626;18.866;2023-08-06T10:57:30;99116.50;;;22.95;61.52
58072;BME280;60383;46.626;18.866;2023-08-06T10:59:55;99119.78;;;22.82;61.95
58072;BME280;60383;46.626;18.866;2023-08-06T11:02:21;99108.66;;;22.87;59.24
58072;BME280;60383;46.626;18.866;2023-08-06T11:04:48;99114.69;;;23.22;61.58
58072;BME280;60383;46.626;18.866;2023-08-06T11:07:13;99124.75;;;23.18;58.59
58072;BME280;60383;46.626;18.866;2023-08-06T11:09:39;99119.31;;;22.95;59.54
58072;BME280;60383;46.626;18.866;2023-08-06T11:12:11;99118.88;;;22.71;59.43
58072;BME280;60383;46.626;18.866;2023-08-06T11:14:36;99121.59;;;22.61;60.85
58072;BME280;60383;46.626;18.866;2023-08-06T11:17:02;99123.66;;;22.38;63.35
58072;BME280;60383;46.626;18.866;2023-08-06T11:19:28;99126.44;;;22.38;61.54
58072;BME280;60383;46.626;18.866;2023-08-06T11:21:54;99127.16;;;22.23;60.74
58072;BME280;60383;46.626;18.866;2023-08-06T11:24:20;99130.06;;;22.06;59.80
58072;BME280;60383;46.626;18.866;2023-08-06T11:26:45;99135.28;;;21.70;61.82
58072;BME280;60383;46.626;18.866;2023-08-06T11:29:11;99138.34;;;21.68;60.77
58072;BME280;60383;46.626;18.866;2023-08-06T11:31:36;99143.47;;;21.54;61.98
58072;BME280;60383;46.626;18.866;2023-08-06T11:34:02;99144.66;;;21.59;61.95
58072;BME280;60383;46.626;18.866;2023-08-06T11:36:34;99150.09;;;21.48;62.80
58072;BME280;60383;46.626;18.866;2023-08-06T11:39:02;99159.72;;;21.41;64.08
58072;BME280;60383;46.626;18.866;2023-08-06T11:41:31;99167.88;;;21.25;64.06
58072;BME280;60383;46.626;18.866;2023-08-06T11:43:58;99158.31;;;21.16;65.47
58072;BME280;60383;46.626;18.866;2023-08-06T11:46:23;99158.38;;;21.21;64.93
58072;BME280;60383;46.626;18.866;2023-08-06T11:48:59;99158.97;;;21.23;64.84
58072;BME280;60383;46.626;18.866;2023-08-06T11:51:25;99159.19;;;21.21;64.60
58072;BME280;60383;46.626;18.866;2023-08-06T11:53:56;99160.91;;;21.22;64.89
58072;BME280;60383;46.626;18.866;2023-08-06T11:56:22;99159.53;;;21.25;65.28
58072;BME280;60383;46.626;18.866;2023-08-06T11:58:48;99166.28;;;21.29;64.45
58072;BME280;60383;46.626;18.866;2023-08-06T12:01:13;99168.34;;;21.39;64.94
58072;BME280;60383;46.626;18.866;2023-08-06T12:03:40;99170.44;;;21.27;65.91
58072;BME280;60383;46.626;18.866;2023-08-06T12:06:06;99172.75;;;21.13;65.16
58072;BME280;60383;46.626;18.866;2023-08-06T12:08:32;99181.03;;;21.08;66.69
58072;BME280;60383;46.626;18.866;2023-08-06T12:10:58;99183.03;;;21.12;65.16
58072;BME280;60383;46.626;18.866;2023-08-06T12:13:23;99186.53;;;21.02;66.91
58072;BME280;60383;46.626;18.866;2023-08-06T12:15:49;99189.53;;;21.01;67.20
58072;BME280;60383;46.626;18.866;2023-08-06T12:18:14;99197.16;;;20.88;66.93
58072;BME280;60383;46.626;18.866;2023-08-06T12:20:40;99184.88;;;20.84;64.68
58072;BME280;60383;46.626;18.866;2023-08-06T12:23:06;99201.03;;;20.70;65.91
58072;BME280;60383;46.626;18.866;2023-08-06T12:25:31;99207.28;;;20.43;66.73
58072;BME280;60383;46.626;18.866;2023-08-06T12:27:57;99203.16;;;20.46;67.33
58072;BME280;60383;46.626;18.866;2023-08-06T12:30:22;99203.81;;;20.36;68.61
58072;BME280;60383;46.626;18.866;2023-08-06T12:32:48;99206.53;;;20.31;69.77
58072;BME280;60383;46.626;18.866;2023-08-06T12:35:13;99204.75;;;20.42;70.26
58072;BME280;60383;46.626;18.866;2023-08-06T12:37:39;99202.91;;;20.48;71.20
58072;BME280;60383;46.626;18.866;2023-08-06T12:40:06;99205.59;;;20.59;72.16
58072;BME280;60383;46.626;18.866;2023-08-06T12:42:31;99205.16;;;20.68;72.30
58072;BME280;60383;46.626;18.866;2023-08-06T12:44:57;99205.31;;;20.73;72.16
58072;BME280;60383;46.626;18.866;2023-08-06T12:47:22;99201.22;;;20.64;72.18
58072;BME280;60383;46.626;18.866;2023-08-06T12:49:47;99202.00;;;20.76;72.72